Portada
METAR-TAF:

METAR-TAF

Aeroports :

Lannion, França

latitud: 48-45N, longitud: 003-28W, altitud: 89 m

Observació

L'informe es va fer fa 16 minuts, a les 14:30 UTC
Vent 14 kt del Oest
Temperatura 7°C
Humitat 70%
Pressió 1015 hPa
Visibilitat 10 km o més
Escasses núvols a una alçada de 1600 ft
Núvols disperses a una alçada de 4500 ft

METAR: LFRO 261430Z AUTO 27014KT 9999 FEW016 SCT045 07/02 Q1015

Hora: 15:46 (14:46 UTC)


TAF: manca

Observacions i pronòstics meteorològics de més de 4000 aeroports (METAR i TAF).

Les estacions disponibles són els punts grocs i vermells al mapa.

Posi el ratolí al punt desitjat per veure el nom de l'estació.

Feu clic per veure les observacions i els pronòstics meteorològics.

Per canviar el mapa: feu clic els botons verds amb una creu de color negre per apropar; al botó verd amb un guió per allunyar la imatge; o en les fletxes verdes per a mapes adjacents.


METAR-TAF: